Banks, Alabama
Current Conditions -  °F | °C
As of 9:53 AM on Wednesday 22 Oct 2014 (Local Time) from KTOI Reporting Station
Clear Clear  
Wind Chill: 62°   Ceiling: Unl
Heat Index: 62°   Visibility: 10mi
Dew Point: 44°   Wind: 10mph
Humidity: 52%   Direction: 40°NE
Pressure: 30.13"   Gusts: NA
Location:  31.82°N, 85.84°W
Report Text: KTOI 221453Z AUTO 04009KT 10SM CLR 17/07 A3013 RMK AO2 SLP202 T01670067 51013
Loading
Personal Weather Stations






























Interactive Weather Map
Tropical Storm Tracking
New forecast layout! Learn more

10-Day Weather Forecast

Advertisements
Track Severe Weather on mobile